sensor_id;sensor_type;location;lat;lon;timestamp;pressure;altitude;pressure_sealevel;temperature;humidity
36254;BME280;22291;52.250;21.228;2022-12-01T00:01:25;101742.70;;;1.11;85.52
36254;BME280;22291;52.250;21.228;2022-12-01T00:03:53;101744.44;;;1.08;85.51
36254;BME280;22291;52.250;21.228;2022-12-01T00:06:22;101745.04;;;1.10;85.63
36254;BME280;22291;52.250;21.228;2022-12-01T00:08:51;101748.75;;;1.09;85.67
36254;BME280;22291;52.250;21.228;2022-12-01T00:11:38;101741.77;;;1.08;85.70
36254;BME280;22291;52.250;21.228;2022-12-01T00:14:06;101739.11;;;1.08;85.75
36254;BME280;22291;52.250;21.228;2022-12-01T00:16:34;101749.56;;;1.10;85.78
36254;BME280;22291;52.250;21.228;2022-12-01T00:19:01;101745.56;;;1.10;85.88
36254;BME280;22291;52.250;21.228;2022-12-01T00:21:28;101742.90;;;1.10;85.91
36254;BME280;22291;52.250;21.228;2022-12-01T00:23:56;101738.59;;;1.09;85.92
36254;BME280;22291;52.250;21.228;2022-12-01T00:26:26;101738.59;;;1.09;85.92
36254;BME280;22291;52.250;21.228;2022-12-01T00:28:56;101750.89;;;1.10;86.06
36254;BME280;22291;52.250;21.228;2022-12-01T00:31:26;101742.37;;;1.10;86.15
36254;BME280;22291;52.250;21.228;2022-12-01T00:33:52;101743.71;;;1.10;86.22
36254;BME280;22291;52.250;21.228;2022-12-01T00:36:22;101743.22;;;1.11;86.20
36254;BME280;22291;52.250;21.228;2022-12-01T00:38:54;101739.71;;;1.10;86.20
36254;BME280;22291;52.250;21.228;2022-12-01T00:41:24;101742.37;;;1.10;86.22
36254;BME280;22291;52.250;21.228;2022-12-01T00:43:51;101737.57;;;1.10;86.28
36254;BME280;22291;52.250;21.228;2022-12-01T00:46:17;101740.55;;;1.11;86.28
36254;BME280;22291;52.250;21.228;2022-12-01T00:48:43;101740.34;;;1.13;86.29
36254;BME280;22291;52.250;21.228;2022-12-01T00:51:11;101737.36;;;1.11;86.31
36254;BME280;22291;52.250;21.228;2022-12-01T00:53:37;101738.70;;;1.11;86.37
36254;BME280;22291;52.250;21.228;2022-12-01T00:56:06;101735.02;;;1.13;86.44
36254;BME280;22291;52.250;21.228;2022-12-01T00:58:32;101731.02;;;1.13;86.48
36254;BME280;22291;52.250;21.228;2022-12-01T01:01:01;101728.84;;;1.12;86.48
36254;BME280;22291;52.250;21.228;2022-12-01T01:03:31;101729.16;;;1.13;86.45
36254;BME280;22291;52.250;21.228;2022-12-01T01:06:08;101720.36;;;1.13;86.44
36254;BME280;22291;52.250;21.228;2022-12-01T01:08:38;101720.36;;;1.13;86.49
36254;BME280;22291;52.250;21.228;2022-12-01T01:11:07;101721.69;;;1.13;86.53
36254;BME280;22291;52.250;21.228;2022-12-01T01:13:36;101717.90;;;1.11;86.51
36254;BME280;22291;52.250;21.228;2022-12-01T01:16:13;101714.92;;;1.10;86.52
36254;BME280;22291;52.250;21.228;2022-12-01T01:18:36;101716.77;;;1.09;86.58
36254;BME280;22291;52.250;21.228;2022-12-01T01:21:09;101714.92;;;1.10;86.56
36254;BME280;22291;52.250;21.228;2022-12-01T01:23:33;101719.23;;;1.11;86.64
36254;BME280;22291;52.250;21.228;2022-12-01T01:26:07;101714.11;;;1.09;86.72
36254;BME280;22291;52.250;21.228;2022-12-01T01:28:37;101713.06;;;1.10;86.67
36254;BME280;22291;52.250;21.228;2022-12-01T01:31:08;101715.23;;;1.11;86.79
36254;BME280;22291;52.250;21.228;2022-12-01T01:33:37;101719.72;;;1.10;86.81
36254;BME280;22291;52.250;21.228;2022-12-01T01:36:07;101721.05;;;1.10;86.77
36254;BME280;22291;52.250;21.228;2022-12-01T01:38:36;101718.11;;;1.09;86.79
36254;BME280;22291;52.250;21.228;2022-12-01T01:41:05;101721.58;;;1.10;86.81
36254;BME280;22291;52.250;21.228;2022-12-01T01:43:42;101722.10;;;1.09;86.90
36254;BME280;22291;52.250;21.228;2022-12-01T01:49:01;101722.84;;;1.07;86.93
36254;BME280;22291;52.250;21.228;2022-12-01T01:54:15;101711.55;;;1.05;87.07
36254;BME280;22291;52.250;21.228;2022-12-01T01:56:47;101712.88;;;1.05;87.10
36254;BME280;22291;52.250;21.228;2022-12-01T01:59:18;101720.06;;;1.05;87.17
36254;BME280;22291;52.250;21.228;2022-12-01T02:01:50;101723.74;;;1.04;87.16
36254;BME280;22291;52.250;21.228;2022-12-01T02:04:20;101726.41;;;1.04;87.21
36254;BME280;22291;52.250;21.228;2022-12-01T02:06:48;101723.74;;;1.04;87.31
36254;BME280;22291;52.250;21.228;2022-12-01T02:09:19;101722.41;;;1.04;87.38
36254;BME280;22291;52.250;21.228;2022-12-01T02:11:58;101715.75;;;1.04;87.36
36254;BME280;22291;52.250;21.228;2022-12-01T02:34:47;101708.59;;;1.04;87.68
36254;BME280;22291;52.250;21.228;2022-12-01T02:40:30;101713.32;;;1.02;87.64
36254;BME280;22291;52.250;21.228;2022-12-01T02:48:43;101711.98;;;1.02;87.75
36254;BME280;22291;52.250;21.228;2022-12-01T02:51:22;101707.99;;;1.02;87.82
36254;BME280;22291;52.250;21.228;2022-12-01T02:53:55;101706.34;;;1.01;87.88
36254;BME280;22291;52.250;21.228;2022-12-01T02:56:25;101709.01;;;1.01;87.92
36254;BME280;22291;52.250;21.228;2022-12-01T02:58:51;101712.80;;;1.03;87.95
36254;BME280;22291;52.250;21.228;2022-12-01T03:13:03;101701.02;;;1.01;87.92
36254;BME280;22291;52.250;21.228;2022-12-01T03:15:36;101698.88;;;1.01;88.02
36254;BME280;22291;52.250;21.228;2022-12-01T03:18:23;101697.43;;;0.98;88.02
36254;BME280;22291;52.250;21.228;2022-12-01T03:24:10;101703.08;;;0.99;88.13
36254;BME280;22291;52.250;21.228;2022-12-01T03:26:41;101694.48;;;0.97;88.12
36254;BME280;22291;52.250;21.228;2022-12-01T03:29:17;101692.02;;;0.96;88.17
36254;BME280;22291;52.250;21.228;2022-12-01T03:31:47;101696.52;;;0.95;88.12
36254;BME280;22291;52.250;21.228;2022-12-01T03:34:23;101695.39;;;0.93;88.20
36254;BME280;22291;52.250;21.228;2022-12-01T03:36:58;101691.19;;;0.95;88.25
36254;BME280;22291;52.250;21.228;2022-12-01T03:39:29;101690.90;;;0.94;88.21
36254;BME280;22291;52.250;21.228;2022-12-01T03:42:09;101691.11;;;0.92;88.17
36254;BME280;22291;52.250;21.228;2022-12-01T03:44:54;101687.63;;;0.92;88.21
36254;BME280;22291;52.250;21.228;2022-12-01T03:47:25;101687.63;;;0.92;88.33
36254;BME280;22291;52.250;21.228;2022-12-01T03:49:57;101686.80;;;0.91;88.40
36254;BME280;22291;52.250;21.228;2022-12-01T03:52:42;101680.97;;;0.92;88.44
36254;BME280;22291;52.250;21.228;2022-12-01T03:55:27;101682.30;;;0.92;88.39
36254;BME280;22291;52.250;21.228;2022-12-01T03:58:24;101684.52;;;0.95;88.45
36254;BME280;22291;52.250;21.228;2022-12-01T04:00:39;101683.40;;;0.93;88.40
36254;BME280;22291;52.250;21.228;2022-12-01T04:03:15;101681.58;;;0.94;88.48
36254;BME280;22291;52.250;21.228;2022-12-01T04:05:42;101685.05;;;0.95;88.50
36254;BME280;22291;52.250;21.228;2022-12-01T04:08:09;101685.36;;;0.96;88.51
36254;BME280;22291;52.250;21.228;2022-12-01T04:10:35;101693.44;;;0.98;88.59
36254;BME280;22291;52.250;21.228;2022-12-01T04:13:01;101694.87;;;1.01;88.62
36254;BME280;22291;52.250;21.228;2022-12-01T04:15:31;101690.67;;;1.02;88.61
36254;BME280;22291;52.250;21.228;2022-12-01T04:17:57;101681.34;;;1.02;88.57
36254;BME280;22291;52.250;21.228;2022-12-01T04:20:23;101686.95;;;1.03;88.57
36254;BME280;22291;52.250;21.228;2022-12-01T04:22:49;101682.16;;;1.03;88.51
36254;BME280;22291;52.250;21.228;2022-12-01T04:25:15;101682.67;;;1.02;88.48
36254;BME280;22291;52.250;21.228;2022-12-01T04:27:44;101672.22;;;1.01;88.42
36254;BME280;22291;52.250;21.228;2022-12-01T04:30:13;101680.22;;;1.01;88.44
36254;BME280;22291;52.250;21.228;2022-12-01T04:32:42;101675.17;;;1.02;88.53
36254;BME280;22291;52.250;21.228;2022-12-01T04:35:11;101672.52;;;1.02;88.55
36254;BME280;22291;52.250;21.228;2022-12-01T04:37:39;101672.02;;;1.02;88.54
36254;BME280;22291;52.250;21.228;2022-12-01T04:40:09;101680.30;;;1.03;88.42
36254;BME280;22291;52.250;21.228;2022-12-01T04:42:36;101673.03;;;1.01;88.36
36254;BME280;22291;52.250;21.228;2022-12-01T04:45:02;101671.31;;;0.98;88.23
36254;BME280;22291;52.250;21.228;2022-12-01T04:47:28;101672.72;;;1.00;88.25
36254;BME280;22291;52.250;21.228;2022-12-01T04:49:55;101681.23;;;1.00;88.22
36254;BME280;22291;52.250;21.228;2022-12-01T04:52:21;101697.02;;;1.01;88.22
36254;BME280;22291;52.250;21.228;2022-12-01T04:54:47;101693.55;;;1.01;88.21
36254;BME280;22291;52.250;21.228;2022-12-01T04:57:13;101686.25;;;0.99;88.08
36254;BME280;22291;52.250;21.228;2022-12-01T04:59:39;101695.58;;;0.99;88.02
36254;BME280;22291;52.250;21.228;2022-12-01T05:02:05;101694.77;;;0.98;88.02
36254;BME280;22291;52.250;21.228;2022-12-01T05:04:33;101689.64;;;0.97;88.00
36254;BME280;22291;52.250;21.228;2022-12-01T05:07:01;101687.30;;;0.98;88.07
36254;BME280;22291;52.250;21.228;2022-12-01T05:09:29;101695.81;;;0.97;88.07
36254;BME280;22291;52.250;21.228;2022-12-01T05:11:55;101692.62;;;0.98;88.15
36254;BME280;22291;52.250;21.228;2022-12-01T05:14:21;101692.42;;;0.99;88.20
36254;BME280;22291;52.250;21.228;2022-12-01T05:16:48;101691.08;;;0.99;88.20
36254;BME280;22291;52.250;21.228;2022-12-01T05:19:14;101690.56;;;1.00;88.22
36254;BME280;22291;52.250;21.228;2022-12-01T05:21:59;101690.35;;;1.01;88.21
36254;BME280;22291;52.250;21.228;2022-12-01T05:24:25;101692.10;;;0.98;88.20
36254;BME280;22291;52.250;21.228;2022-12-01T05:26:52;101699.16;;;1.02;88.18
36254;BME280;22291;52.250;21.228;2022-12-01T05:29:21;101709.80;;;1.08;88.13
36254;BME280;22291;52.250;21.228;2022-12-01T05:31:47;101698.55;;;1.00;88.08
36254;BME280;22291;52.250;21.228;2022-12-01T05:34:16;101705.41;;;1.05;88.12
36254;BME280;22291;52.250;21.228;2022-12-01T05:36:42;101701.22;;;1.00;88.08
36254;BME280;22291;52.250;21.228;2022-12-01T05:39:08;101706.02;;;1.00;88.12
36254;BME280;22291;52.250;21.228;2022-12-01T05:41:35;101696.41;;;0.99;88.15
36254;BME280;22291;52.250;21.228;2022-12-01T05:44:06;101694.24;;;0.99;88.13
36254;BME280;22291;52.250;21.228;2022-12-01T05:46:32;101695.08;;;0.99;88.15
36254;BME280;22291;52.250;21.228;2022-12-01T05:48:58;101692.70;;;1.00;88.16
36254;BME280;22291;52.250;21.228;2022-12-01T05:51:24;101698.88;;;1.01;88.20
36254;BME280;22291;52.250;21.228;2022-12-01T05:53:52;101695.69;;;1.01;88.21
36254;BME280;22291;52.250;21.228;2022-12-01T05:56:19;101701.02;;;1.01;88.22
36254;BME280;22291;52.250;21.228;2022-12-01T05:58:47;101701.02;;;1.01;88.22
36254;BME280;22291;52.250;21.228;2022-12-01T06:01:13;101691.16;;;1.02;88.19
36254;BME280;22291;52.250;21.228;2022-12-01T06:03:41;101697.02;;;1.01;88.21
36254;BME280;22291;52.250;21.228;2022-12-01T06:06:08;101699.47;;;1.03;88.20
36254;BME280;22291;52.250;21.228;2022-12-01T06:08:34;101697.62;;;1.03;88.21
36254;BME280;22291;52.250;21.228;2022-12-01T06:11:00;101695.76;;;1.04;88.19
36254;BME280;22291;52.250;21.228;2022-12-01T06:13:28;101698.95;;;1.03;88.19
36254;BME280;22291;52.250;21.228;2022-12-01T06:16:05;101695.76;;;1.04;88.19
36254;BME280;22291;52.250;21.228;2022-12-01T06:18:33;101696.00;;;1.02;88.16
36254;BME280;22291;52.250;21.228;2022-12-01T06:21:03;101699.47;;;1.03;88.16
36254;BME280;22291;52.250;21.228;2022-12-01T06:23:32;101692.50;;;1.02;88.18
36254;BME280;22291;52.250;21.228;2022-12-01T06:25:59;101701.33;;;1.02;88.18
36254;BME280;22291;52.250;21.228;2022-12-01T06:28:26;101698.34;;;1.01;88.19
36254;BME280;22291;52.250;21.228;2022-12-01T06:30:54;101700.00;;;1.02;88.25
36254;BME280;22291;52.250;21.228;2022-12-01T06:33:20;101711.73;;;1.10;88.46
36254;BME280;22291;52.250;21.228;2022-12-01T06:35:47;101711.73;;;1.10;88.46
36254;BME280;22291;52.250;21.228;2022-12-01T06:38:13;101700.28;;;1.03;88.25
36254;BME280;22291;52.250;21.228;2022-12-01T06:40:42;101696.81;;;1.03;88.33
36254;BME280;22291;52.250;21.228;2022-12-01T06:43:10;101696.49;;;1.02;88.26
36254;BME280;22291;52.250;21.228;2022-12-01T06:45:37;101694.03;;;1.00;88.29
36254;BME280;22291;52.250;21.228;2022-12-01T06:48:03;101701.33;;;1.02;88.40
36254;BME280;22291;52.250;21.228;2022-12-01T06:50:29;101700.70;;;1.00;88.47
36254;BME280;22291;52.250;21.228;2022-12-01T06:52:55;101696.00;;;1.02;88.49
36254;BME280;22291;52.250;21.228;2022-12-01T06:55:22;101697.62;;;1.03;88.47
36254;BME280;22291;52.250;21.228;2022-12-01T06:57:48;101692.29;;;1.03;88.51
36254;BME280;22291;52.250;21.228;2022-12-01T07:00:17;101690.75;;;1.05;88.54
36254;BME280;22291;52.250;21.228;2022-12-01T07:02:43;101689.41;;;1.05;88.49
36254;BME280;22291;52.250;21.228;2022-12-01T07:05:10;101693.73;;;1.06;88.49
36254;BME280;22291;52.250;21.228;2022-12-01T07:07:38;101688.40;;;1.06;88.56
36254;BME280;22291;52.250;21.228;2022-12-01T07:10:08;101690.54;;;1.06;88.65
36254;BME280;22291;52.250;21.228;2022-12-01T07:12:36;101700.98;;;1.08;88.71
36254;BME280;22291;52.250;21.228;2022-12-01T07:15:06;101682.86;;;1.07;88.71
36254;BME280;22291;52.250;21.228;2022-12-01T07:17:34;101704.55;;;1.18;88.64
36254;BME280;22291;52.250;21.228;2022-12-01T07:20:01;101691.74;;;1.10;88.75
36254;BME280;22291;52.250;21.228;2022-12-01T07:22:28;101696.86;;;1.12;88.76
36254;BME280;22291;52.250;21.228;2022-12-01T07:24:55;101689.47;;;1.14;88.83
36254;BME280;22291;52.250;21.228;2022-12-01T07:27:21;101697.25;;;1.16;88.87
36254;BME280;22291;52.250;21.228;2022-12-01T07:29:47;101690.09;;;1.16;88.90
36254;BME280;22291;52.250;21.228;2022-12-01T07:32:14;101694.17;;;1.19;88.87
36254;BME280;22291;52.250;21.228;2022-12-01T07:34:40;101688.55;;;1.18;88.80
36254;BME280;22291;52.250;21.228;2022-12-01T07:37:06;101686.91;;;1.17;88.66
36254;BME280;22291;52.250;21.228;2022-12-01T07:39:32;101691.02;;;1.19;88.67
36254;BME280;22291;52.250;21.228;2022-12-01T07:41:58;101689.16;;;1.20;88.66
36254;BME280;22291;52.250;21.228;2022-12-01T07:44:24;101707.44;;;1.32;88.64
36254;BME280;22291;52.250;21.228;2022-12-01T07:46:51;101695.09;;;1.22;88.58
36254;BME280;22291;52.250;21.228;2022-12-01T07:49:17;101694.28;;;1.21;88.45
36254;BME280;22291;52.250;21.228;2022-12-01T07:51:43;101692.34;;;1.19;88.48
36254;BME280;22291;52.250;21.228;2022-12-01T07:54:10;101711.31;;;1.36;88.41
36254;BME280;22291;52.250;21.228;2022-12-01T07:56:39;101711.31;;;1.36;88.41
36254;BME280;22291;52.250;21.228;2022-12-01T07:59:06;101687.09;;;1.22;88.53
36254;BME280;22291;52.250;21.228;2022-12-01T08:01:32;101693.86;;;1.24;88.54
36254;BME280;22291;52.250;21.228;2022-12-01T08:03:58;101697.13;;;1.26;88.56
36254;BME280;22291;52.250;21.228;2022-12-01T08:06:25;101701.13;;;1.26;88.44
36254;BME280;22291;52.250;21.228;2022-12-01T08:08:52;101694.74;;;1.27;88.53
36254;BME280;22291;52.250;21.228;2022-12-01T08:11:23;101698.04;;;1.29;88.60
36254;BME280;22291;52.250;21.228;2022-12-01T08:13:52;101688.47;;;1.31;88.47
36254;BME280;22291;52.250;21.228;2022-12-01T08:16:20;101694.84;;;1.30;88.06
36254;BME280;22291;52.250;21.228;2022-12-01T08:18:48;101692.70;;;1.29;88.16
36254;BME280;22291;52.250;21.228;2022-12-01T08:21:16;101696.19;;;1.30;88.04
36254;BME280;22291;52.250;21.228;2022-12-01T08:23:45;101697.20;;;1.29;88.03
36254;BME280;22291;52.250;21.228;2022-12-01T08:26:15;101700.25;;;1.33;88.16
36254;BME280;22291;52.250;21.228;2022-12-01T08:28:43;101695.23;;;1.34;88.29
36254;BME280;22291;52.250;21.228;2022-12-01T08:31:16;101699.84;;;1.36;88.26
36254;BME280;22291;52.250;21.228;2022-12-01T08:33:49;101698.50;;;1.36;88.21
36254;BME280;22291;52.250;21.228;2022-12-01T08:36:17;101688.65;;;1.36;88.04
36254;BME280;22291;52.250;21.228;2022-12-01T08:38:47;101695.23;;;1.34;88.00
36254;BME280;22291;52.250;21.228;2022-12-01T08:41:16;101701.91;;;1.34;87.81
36254;BME280;22291;52.250;21.228;2022-12-01T08:43:42;101702.92;;;1.33;87.69
36254;BME280;22291;52.250;21.228;2022-12-01T08:46:11;101706.03;;;1.29;87.59
36254;BME280;22291;52.250;21.228;2022-12-01T08:48:38;101705.20;;;1.29;87.76
36254;BME280;22291;52.250;21.228;2022-12-01T08:51:07;101708.39;;;1.28;87.87
36254;BME280;22291;52.250;21.228;2022-12-01T08:53:37;101707.58;;;1.28;87.92
36254;BME280;22291;52.250;21.228;2022-12-01T08:56:11;101709.72;;;1.28;87.95
36254;BME280;22291;52.250;21.228;2022-12-01T08:58:40;101709.41;;;1.27;88.00
36254;BME280;22291;52.250;21.228;2022-12-01T09:01:09;101709.20;;;1.29;88.10
36254;BME280;22291;52.250;21.228;2022-12-01T09:03:38;101710.03;;;1.29;88.13
36254;BME280;22291;52.250;21.228;2022-12-01T09:06:13;101718.84;;;1.30;88.04
36254;BME280;22291;52.250;21.228;2022-12-01T09:08:42;101712.59;;;1.27;87.89
36254;BME280;22291;52.250;21.228;2022-12-01T09:11:14;101714.73;;;1.27;88.00
36254;BME280;22291;52.250;21.228;2022-12-01T09:13:44;101706.73;;;1.27;88.08
36254;BME280;22291;52.250;21.228;2022-12-01T09:16:13;101712.07;;;1.27;87.95
36254;BME280;22291;52.250;21.228;2022-12-01T09:18:43;101709.02;;;1.24;87.73
36254;BME280;22291;52.250;21.228;2022-12-01T09:21:27;101708.10;;;1.21;87.75
36254;BME280;22291;52.250;21.228;2022-12-01T09:23:51;101708.63;;;1.20;87.92
36254;BME280;22291;52.250;21.228;2022-12-01T09:26:18;101707.68;;;1.24;88.15
36254;BME280;22291;52.250;21.228;2022-12-01T09:28:47;101710.34;;;1.24;88.19
36254;BME280;22291;52.250;21.228;2022-12-01T09:31:15;101705.33;;;1.25;88.01
36254;BME280;22291;52.250;21.228;2022-12-01T09:33:43;101710.73;;;1.27;87.93
36254;BME280;22291;52.250;21.228;2022-12-01T09:36:10;101708.28;;;1.26;87.83
36254;BME280;22291;52.250;21.228;2022-12-01T09:38:38;101706.14;;;1.25;87.82
36254;BME280;22291;52.250;21.228;2022-12-01T09:41:16;101703.47;;;1.25;87.93
36254;BME280;22291;52.250;21.228;2022-12-01T09:43:46;101703.47;;;1.25;87.76
36254;BME280;22291;52.250;21.228;2022-12-01T09:46:15;101703.40;;;1.23;87.51
36254;BME280;22291;52.250;21.228;2022-12-01T09:48:46;101696.73;;;1.23;87.42
36254;BME280;22291;52.250;21.228;2022-12-01T09:51:16;101705.23;;;1.22;87.39
36254;BME280;22291;52.250;21.228;2022-12-01T09:53:50;101702.48;;;1.20;87.17
36254;BME280;22291;52.250;21.228;2022-12-01T09:56:28;101703.50;;;1.19;87.23
36254;BME280;22291;52.250;21.228;2022-12-01T09:59:02;101700.23;;;1.17;87.28
36254;BME280;22291;52.250;21.228;2022-12-01T10:01:37;101700.23;;;1.17;87.37
36254;BME280;22291;52.250;21.228;2022-12-01T10:04:12;101703.50;;;1.19;87.50
36254;BME280;22291;52.250;21.228;2022-12-01T10:07:05;101695.92;;;1.16;87.30
36254;BME280;22291;52.250;21.228;2022-12-01T10:12:22;101695.71;;;1.17;87.35
36254;BME280;22291;52.250;21.228;2022-12-01T10:14:55;101697.67;;;1.19;87.52
36254;BME280;22291;52.250;21.228;2022-12-01T10:18:19;101685.58;;;1.17;87.45
36254;BME280;22291;52.250;21.228;2022-12-01T10:20:16;101691.02;;;1.19;87.43
36254;BME280;22291;52.250;21.228;2022-12-01T10:25:57;101685.19;;;1.13;87.19
36254;BME280;22291;52.250;21.228;2022-12-01T10:34:33;101678.20;;;1.12;87.34
36254;BME280;22291;52.250;21.228;2022-12-01T10:37:03;101672.14;;;1.14;87.39
36254;BME280;22291;52.250;21.228;2022-12-01T10:39:42;101671.33;;;1.14;87.30
36254;BME280;22291;52.250;21.228;2022-12-01T10:42:18;101677.71;;;1.13;87.16
36254;BME280;22291;52.250;21.228;2022-12-01T10:44:46;101670.73;;;1.11;87.10
36254;BME280;22291;52.250;21.228;2022-12-01T10:47:21;101675.25;;;1.11;87.23
36254;BME280;22291;52.250;21.228;2022-12-01T10:49:49;101674.52;;;1.13;87.36
36254;BME280;22291;52.250;21.228;2022-12-01T10:52:34;101672.14;;;1.14;87.28
36254;BME280;22291;52.250;21.228;2022-12-01T10:55:04;101666.81;;;1.14;87.36
36254;BME280;22291;52.250;21.228;2022-12-01T10:57:53;101669.58;;;1.17;87.43
36254;BME280;22291;52.250;21.228;2022-12-01T11:00:25;101659.66;;;1.15;87.46
36254;BME280;22291;52.250;21.228;2022-12-01T11:02:59;101665.06;;;1.17;87.46
36254;BME280;22291;52.250;21.228;2022-12-01T11:05:28;101655.66;;;1.15;87.39
36254;BME280;22291;52.250;21.228;2022-12-01T11:07:58;101655.73;;;1.17;87.34
36254;BME280;22291;52.250;21.228;2022-12-01T11:10:29;101654.92;;;1.17;87.31
36254;BME280;22291;52.250;21.228;2022-12-01T11:13:02;101656.05;;;1.18;87.35
36254;BME280;22291;52.250;21.228;2022-12-01T11:15:38;101658.50;;;1.20;87.43
36254;BME280;22291;52.250;21.228;2022-12-01T11:18:22;101654.50;;;1.20;87.09
36254;BME280;22291;52.250;21.228;2022-12-01T11:23:55;101651.14;;;1.15;87.07
36254;BME280;22291;52.250;21.228;2022-12-01T11:26:25;101650.61;;;1.16;87.29
36254;BME280;22291;52.250;21.228;2022-12-01T11:29:06;101653.28;;;1.16;87.29
36254;BME280;22291;52.250;21.228;2022-12-01T11:31:53;101649.91;;;1.18;87.44
36254;BME280;22291;52.250;21.228;2022-12-01T11:34:28;101652.58;;;1.18;87.22
36254;BME280;22291;52.250;21.228;2022-12-01T11:37:03;101649.59;;;1.17;87.12
36254;BME280;22291;52.250;21.228;2022-12-01T11:39:39;101644.89;;;1.12;87.05
36254;BME280;22291;52.250;21.228;2022-12-01T11:42:18;101645.49;;;1.14;87.08
36254;BME280;22291;52.250;21.228;2022-12-01T11:45:12;101645.49;;;1.14;87.17
36254;BME280;22291;52.250;21.228;2022-12-01T11:48:01;101638.75;;;1.11;87.24
36254;BME280;22291;52.250;21.228;2022-12-01T11:50:35;101637.42;;;1.11;87.11
36254;BME280;22291;52.250;21.228;2022-12-01T11:53:09;101639.17;;;1.08;87.11
36254;BME280;22291;52.250;21.228;2022-12-01T11:55:51;101640.64;;;1.04;87.08
36254;BME280;22291;52.250;21.228;2022-12-01T11:58:17;101638.19;;;1.03;87.20
36254;BME280;22291;52.250;21.228;2022-12-01T12:00:46;101640.04;;;1.02;87.27
36254;BME280;22291;52.250;21.228;2022-12-01T12:03:28;101644.14;;;0.98;87.09
36254;BME280;22291;52.250;21.228;2022-12-01T12:11:21;101643.45;;;0.87;87.15
36254;BME280;22291;52.250;21.228;2022-12-01T12:17:18;101639.17;;;0.86;87.29
36254;BME280;22291;52.250;21.228;2022-12-01T12:20:14;101643.45;;;0.87;87.38
36254;BME280;22291;52.250;21.228;2022-12-01T12:28:24;101643.67;;;0.92;87.20
36254;BME280;22291;52.250;21.228;2022-12-01T12:34:01;101641.91;;;0.88;86.91
36254;BME280;22291;52.250;21.228;2022-12-01T12:39:39;101646.05;;;0.84;86.58
36254;BME280;22291;52.250;21.228;2022-12-01T12:56:42;101643.44;;;0.64;86.73
36254;BME280;22291;52.250;21.228;2022-12-01T12:59:17;101638.52;;;0.61;86.78
36254;BME280;22291;52.250;21.228;2022-12-01T13:01:54;101648.89;;;0.60;86.69
36254;BME280;22291;52.250;21.228;2022-12-01T13:04:30;101639.46;;;0.58;86.72
36254;BME280;22291;52.250;21.228;2022-12-01T13:09:45;101633.84;;;0.57;86.78
36254;BME280;22291;52.250;21.228;2022-12-01T13:12:19;101636.80;;;0.58;86.68
36254;BME280;22291;52.250;21.228;2022-12-01T13:15:00;101638.34;;;0.56;86.43
36254;BME280;22291;52.250;21.228;2022-12-01T13:17:37;101637.94;;;0.52;86.26
36254;BME280;22291;52.250;21.228;2022-12-01T13:22:43;101636.00;;;0.50;86.29
36254;BME280;22291;52.250;21.228;2022-12-01T13:25:23;101631.20;;;0.50;86.28
36254;BME280;22291;52.250;21.228;2022-12-01T13:27:51;101631.70;;;0.49;86.28
36254;BME280;22291;52.250;21.228;2022-12-01T13:30:23;101631.93;;;0.48;85.62
36254;BME280;22291;52.250;21.228;2022-12-01T13:33:03;101638.27;;;0.47;85.29
36254;BME280;22291;52.250;21.228;2022-12-01T13:35:35;101629.56;;;0.42;85.19
36254;BME280;22291;52.250;21.228;2022-12-01T13:38:34;101631.10;;;0.41;84.96
36254;BME280;22291;52.250;21.228;2022-12-01T13:44:01;101630.09;;;0.42;84.90
36254;BME280;22291;52.250;21.228;2022-12-01T13:49:37;101626.30;;;0.40;84.50
36254;BME280;22291;52.250;21.228;2022-12-01T13:52:28;101625.50;;;0.40;84.35
36254;BME280;22291;52.250;21.228;2022-12-01T14:00:26;101632.03;;;0.44;84.30
36254;BME280;22291;52.250;21.228;2022-12-01T14:08:25;101641.47;;;0.40;83.55
36254;BME280;22291;52.250;21.228;2022-12-01T14:11:03;101632.23;;;0.35;83.27
36254;BME280;22291;52.250;21.228;2022-12-01T14:13:30;101622.44;;;0.29;82.90
36254;BME280;22291;52.250;21.228;2022-12-01T14:16:01;101633.30;;;0.28;82.60
36254;BME280;22291;52.250;21.228;2022-12-01T14:18:32;101636.05;;;0.24;82.62
36254;BME280;22291;52.250;21.228;2022-12-01T14:21:11;101635.16;;;0.21;82.52
36254;BME280;22291;52.250;21.228;2022-12-01T14:24:02;101637.62;;;0.15;82.32
36254;BME280;22291;52.250;21.228;2022-12-01T14:26:28;101648.95;;;0.13;82.35
36254;BME280;22291;52.250;21.228;2022-12-01T14:36:57;101635.25;;;0.10;82.47
36254;BME280;22291;52.250;21.228;2022-12-01T14:39:38;101633.31;;;0.08;82.46
36254;BME280;22291;52.250;21.228;2022-12-01T14:45:34;101629.53;;;-0.01;82.07
36254;BME280;22291;52.250;21.228;2022-12-01T14:48:09;101623.28;;;-0.04;82.30
36254;BME280;22291;52.250;21.228;2022-12-01T14:50:48;101633.63;;;-0.05;82.38
36254;BME280;22291;52.250;21.228;2022-12-01T14:53:29;101629.44;;;-0.10;82.13
36254;BME280;22291;52.250;21.228;2022-12-01T14:56:09;101630.36;;;-0.13;81.91
36254;BME280;22291;52.250;21.228;2022-12-01T14:58:35;101625.97;;;-0.17;81.93
36254;BME280;22291;52.250;21.228;2022-12-01T15:01:10;101633.42;;;-0.16;82.06
36254;BME280;22291;52.250;21.228;2022-12-01T15:06:16;101634.44;;;-0.17;82.13
36254;BME280;22291;52.250;21.228;2022-12-01T15:09:08;101626.98;;;-0.18;81.99
36254;BME280;22291;52.250;21.228;2022-12-01T15:11:37;101625.24;;;-0.22;81.72
36254;BME280;22291;52.250;21.228;2022-12-01T15:16:54;101622.47;;;-0.24;81.75
36254;BME280;22291;52.250;21.228;2022-12-01T15:19:30;101624.64;;;-0.24;81.77
36254;BME280;22291;52.250;21.228;2022-12-01T15:22:03;101629.64;;;-0.25;81.59
36254;BME280;22291;52.250;21.228;2022-12-01T15:24:33;101637.29;;;-0.26;81.56
36254;BME280;22291;52.250;21.228;2022-12-01T15:27:02;101627.29;;;-0.30;81.16
36254;BME280;22291;52.250;21.228;2022-12-01T15:29:35;101627.17;;;-0.33;80.96